KARG

Walnut Ridge Regional Airport

Walnut Ridge, Arkansas, USA
METAR KARG 191056Z AUTO 00000KT 9SM CLR 23/21 A2996 RMK AO2 SLP145 T02280211
Observed Flight Rules
Sep-19 @ 10:56 UTC (40 minutes ago) Visual Flight Rules
Visibility Clouds
9 miles
  • Clear skies
Temperatures Readings
Current 23°C / 73°F
Dewpoint 21°C / 70°F
Humidity 89%
Altimeter 29.96" Hg
Pressure 1014.5 hPa
Elevation 83
METAR KARG 191056Z AUTO 00000KT 9SM CLR 23/21 A2996 RMK AO2 SLP145 T02280211
Observed Flight Rules
Sep-19 @ 10:56 UTC
(40 minutes ago)
VFR
Clouds
  • Clear skies
Temperature Dewpoint
23°C / 73°F 21°C / 70°F
Humidity Altimeter Pressure
89% 29.96" Hg 1014.5 hPa